sensor_id;sensor_type;location;lat;lon;timestamp;P1;durP1;ratioP1;P2;durP2;ratioP2
18649;SDS011;9454;53.516;10.478;2023-03-01T00:02:59;14.15;;;4.18;;
18649;SDS011;9454;53.516;10.478;2023-03-01T00:06:02;9.50;;;3.75;;
18649;SDS011;9454;53.516;10.478;2023-03-01T00:09:06;9.50;;;3.72;;
18649;SDS011;9454;53.516;10.478;2023-03-01T00:12:11;6.40;;;3.63;;
18649;SDS011;9454;53.516;10.478;2023-03-01T00:15:14;11.55;;;3.83;;
18649;SDS011;9454;53.516;10.478;2023-03-01T00:18:17;7.47;;;3.38;;
18649;SDS011;9454;53.516;10.478;2023-03-01T00:21:22;8.55;;;3.60;;
18649;SDS011;9454;53.516;10.478;2023-03-01T00:24:25;4.65;;;2.92;;
18649;SDS011;9454;53.516;10.478;2023-03-01T00:27:30;7.90;;;3.05;;
18649;SDS011;9454;53.516;10.478;2023-03-01T00:30:34;6.70;;;3.53;;
18649;SDS011;9454;53.516;10.478;2023-03-01T00:33:37;7.90;;;3.40;;
18649;SDS011;9454;53.516;10.478;2023-03-01T00:36:41;8.35;;;3.50;;
18649;SDS011;9454;53.516;10.478;2023-03-01T00:39:44;7.80;;;3.53;;
18649;SDS011;9454;53.516;10.478;2023-03-01T00:42:49;8.75;;;2.97;;
18649;SDS011;9454;53.516;10.478;2023-03-01T00:45:52;6.40;;;3.13;;
18649;SDS011;9454;53.516;10.478;2023-03-01T00:48:56;6.82;;;2.83;;
18649;SDS011;9454;53.516;10.478;2023-03-01T00:52:03;7.40;;;3.20;;
18649;SDS011;9454;53.516;10.478;2023-03-01T00:55:07;5.05;;;2.65;;
18649;SDS011;9454;53.516;10.478;2023-03-01T00:58:11;5.40;;;2.63;;
18649;SDS011;9454;53.516;10.478;2023-03-01T01:01:16;6.75;;;3.15;;
18649;SDS011;9454;53.516;10.478;2023-03-01T01:04:20;5.72;;;2.88;;
18649;SDS011;9454;53.516;10.478;2023-03-01T01:07:24;5.32;;;2.80;;
18649;SDS011;9454;53.516;10.478;2023-03-01T01:10:27;7.63;;;2.80;;
18649;SDS011;9454;53.516;10.478;2023-03-01T01:13:32;4.47;;;2.67;;
18649;SDS011;9454;53.516;10.478;2023-03-01T01:16:36;7.25;;;2.75;;
18649;SDS011;9454;53.516;10.478;2023-03-01T01:19:39;5.40;;;2.20;;
18649;SDS011;9454;53.516;10.478;2023-03-01T01:22:43;3.38;;;2.03;;
18649;SDS011;9454;53.516;10.478;2023-03-01T01:25:46;5.65;;;2.78;;
18649;SDS011;9454;53.516;10.478;2023-03-01T01:28:51;5.68;;;3.22;;
18649;SDS011;9454;53.516;10.478;2023-03-01T01:31:55;7.20;;;3.03;;
18649;SDS011;9454;53.516;10.478;2023-03-01T01:34:59;6.72;;;2.88;;
18649;SDS011;9454;53.516;10.478;2023-03-01T01:38:02;4.97;;;2.63;;
18649;SDS011;9454;53.516;10.478;2023-03-01T01:41:06;4.07;;;2.58;;
18649;SDS011;9454;53.516;10.478;2023-03-01T01:44:12;6.35;;;3.13;;
18649;SDS011;9454;53.516;10.478;2023-03-01T01:47:16;4.65;;;2.55;;
18649;SDS011;9454;53.516;10.478;2023-03-01T01:50:21;5.15;;;2.78;;
18649;SDS011;9454;53.516;10.478;2023-03-01T01:53:25;5.85;;;2.78;;
18649;SDS011;9454;53.516;10.478;2023-03-01T01:56:30;7.05;;;2.72;;
18649;SDS011;9454;53.516;10.478;2023-03-01T01:59:35;6.70;;;2.97;;
18649;SDS011;9454;53.516;10.478;2023-03-01T02:02:40;8.33;;;3.33;;
18649;SDS011;9454;53.516;10.478;2023-03-01T02:05:45;6.20;;;2.60;;
18649;SDS011;9454;53.516;10.478;2023-03-01T02:08:57;5.13;;;2.90;;
18649;SDS011;9454;53.516;10.478;2023-03-01T02:12:02;6.40;;;3.17;;
18649;SDS011;9454;53.516;10.478;2023-03-01T02:15:07;8.80;;;3.53;;
18649;SDS011;9454;53.516;10.478;2023-03-01T02:18:12;4.90;;;2.50;;
18649;SDS011;9454;53.516;10.478;2023-03-01T02:21:23;5.35;;;2.60;;
18649;SDS011;9454;53.516;10.478;2023-03-01T02:24:32;4.57;;;3.00;;
18649;SDS011;9454;53.516;10.478;2023-03-01T02:27:43;5.73;;;2.90;;
18649;SDS011;9454;53.516;10.478;2023-03-01T02:30:51;10.68;;;3.30;;
18649;SDS011;9454;53.516;10.478;2023-03-01T02:34:15;4.72;;;3.03;;
18649;SDS011;9454;53.516;10.478;2023-03-01T02:37:19;8.35;;;2.75;;
18649;SDS011;9454;53.516;10.478;2023-03-01T02:40:25;5.25;;;3.03;;
18649;SDS011;9454;53.516;10.478;2023-03-01T02:43:31;4.75;;;2.63;;
18649;SDS011;9454;53.516;10.478;2023-03-01T02:46:41;6.05;;;2.70;;
18649;SDS011;9454;53.516;10.478;2023-03-01T02:49:45;6.72;;;3.08;;
18649;SDS011;9454;53.516;10.478;2023-03-01T02:52:51;4.97;;;2.63;;
18649;SDS011;9454;53.516;10.478;2023-03-01T02:55:57;6.72;;;2.65;;
18649;SDS011;9454;53.516;10.478;2023-03-01T02:59:01;5.47;;;3.05;;
18649;SDS011;9454;53.516;10.478;2023-03-01T03:02:07;6.50;;;2.95;;
18649;SDS011;9454;53.516;10.478;2023-03-01T03:05:13;5.95;;;3.03;;
18649;SDS011;9454;53.516;10.478;2023-03-01T03:08:17;6.20;;;2.87;;
18649;SDS011;9454;53.516;10.478;2023-03-01T03:11:25;9.10;;;3.42;;
18649;SDS011;9454;53.516;10.478;2023-03-01T03:14:29;7.22;;;3.05;;
18649;SDS011;9454;53.516;10.478;2023-03-01T03:17:37;9.80;;;3.40;;
18649;SDS011;9454;53.516;10.478;2023-03-01T03:20:41;2.93;;;2.57;;
18649;SDS011;9454;53.516;10.478;2023-03-01T03:23:46;6.27;;;2.90;;
18649;SDS011;9454;53.516;10.478;2023-03-01T03:26:49;5.88;;;2.75;;
18649;SDS011;9454;53.516;10.478;2023-03-01T03:29:52;5.70;;;2.65;;
18649;SDS011;9454;53.516;10.478;2023-03-01T03:32:57;11.75;;;3.70;;
18649;SDS011;9454;53.516;10.478;2023-03-01T03:36:01;6.82;;;2.88;;
18649;SDS011;9454;53.516;10.478;2023-03-01T03:39:04;7.38;;;3.13;;
18649;SDS011;9454;53.516;10.478;2023-03-01T03:42:08;5.72;;;3.17;;
18649;SDS011;9454;53.516;10.478;2023-03-01T03:45:11;8.02;;;3.20;;
18649;SDS011;9454;53.516;10.478;2023-03-01T03:48:16;6.95;;;3.45;;
18649;SDS011;9454;53.516;10.478;2023-03-01T03:51:20;6.60;;;3.33;;
18649;SDS011;9454;53.516;10.478;2023-03-01T03:54:24;6.07;;;3.08;;
18649;SDS011;9454;53.516;10.478;2023-03-01T03:57:27;6.28;;;3.03;;
18649;SDS011;9454;53.516;10.478;2023-03-01T04:00:31;5.70;;;3.17;;
18649;SDS011;9454;53.516;10.478;2023-03-01T04:03:35;6.80;;;3.25;;
18649;SDS011;9454;53.516;10.478;2023-03-01T04:06:39;4.80;;;3.17;;
18649;SDS011;9454;53.516;10.478;2023-03-01T04:09:43;5.43;;;3.15;;
18649;SDS011;9454;53.516;10.478;2023-03-01T04:12:46;10.75;;;3.65;;
18649;SDS011;9454;53.516;10.478;2023-03-01T04:15:50;8.65;;;3.70;;
18649;SDS011;9454;53.516;10.478;2023-03-01T04:18:55;8.52;;;3.13;;
18649;SDS011;9454;53.516;10.478;2023-03-01T04:22:00;7.63;;;3.13;;
18649;SDS011;9454;53.516;10.478;2023-03-01T04:25:08;9.70;;;3.78;;
18649;SDS011;9454;53.516;10.478;2023-03-01T04:28:15;7.03;;;3.67;;
18649;SDS011;9454;53.516;10.478;2023-03-01T04:31:19;7.25;;;3.72;;
18649;SDS011;9454;53.516;10.478;2023-03-01T04:34:24;5.75;;;3.05;;
18649;SDS011;9454;53.516;10.478;2023-03-01T04:37:28;8.98;;;3.58;;
18649;SDS011;9454;53.516;10.478;2023-03-01T04:40:32;7.53;;;3.55;;
18649;SDS011;9454;53.516;10.478;2023-03-01T04:43:36;10.68;;;3.70;;
18649;SDS011;9454;53.516;10.478;2023-03-01T04:46:39;6.78;;;3.03;;
18649;SDS011;9454;53.516;10.478;2023-03-01T04:49:44;10.60;;;3.55;;
18649;SDS011;9454;53.516;10.478;2023-03-01T04:52:47;6.50;;;3.10;;
18649;SDS011;9454;53.516;10.478;2023-03-01T04:55:51;9.55;;;3.95;;
18649;SDS011;9454;53.516;10.478;2023-03-01T04:58:54;11.70;;;3.35;;
18649;SDS011;9454;53.516;10.478;2023-03-01T05:01:58;7.50;;;3.70;;
18649;SDS011;9454;53.516;10.478;2023-03-01T05:05:04;5.55;;;3.17;;
18649;SDS011;9454;53.516;10.478;2023-03-01T05:08:08;6.25;;;3.22;;
18649;SDS011;9454;53.516;10.478;2023-03-01T05:11:18;7.57;;;3.47;;
18649;SDS011;9454;53.516;10.478;2023-03-01T05:14:21;5.65;;;3.53;;
18649;SDS011;9454;53.516;10.478;2023-03-01T05:17:25;5.72;;;3.42;;
18649;SDS011;9454;53.516;10.478;2023-03-01T05:20:30;6.07;;;2.78;;
18649;SDS011;9454;53.516;10.478;2023-03-01T05:23:33;12.10;;;3.05;;
18649;SDS011;9454;53.516;10.478;2023-03-01T05:26:37;3.53;;;2.55;;
18649;SDS011;9454;53.516;10.478;2023-03-01T05:29:42;4.85;;;2.70;;
18649;SDS011;9454;53.516;10.478;2023-03-01T05:32:46;7.72;;;3.22;;
18649;SDS011;9454;53.516;10.478;2023-03-01T05:35:51;8.13;;;2.95;;
18649;SDS011;9454;53.516;10.478;2023-03-01T05:38:55;3.67;;;2.28;;
18649;SDS011;9454;53.516;10.478;2023-03-01T05:41:59;3.88;;;2.83;;
18649;SDS011;9454;53.516;10.478;2023-03-01T05:45:03;4.22;;;2.75;;
18649;SDS011;9454;53.516;10.478;2023-03-01T05:48:11;8.80;;;3.90;;
18649;SDS011;9454;53.516;10.478;2023-03-01T05:51:16;4.63;;;2.80;;
18649;SDS011;9454;53.516;10.478;2023-03-01T05:54:20;4.78;;;2.53;;
18649;SDS011;9454;53.516;10.478;2023-03-01T05:57:24;5.80;;;3.03;;
18649;SDS011;9454;53.516;10.478;2023-03-01T06:00:27;4.55;;;2.78;;
18649;SDS011;9454;53.516;10.478;2023-03-01T06:03:32;5.07;;;3.28;;
18649;SDS011;9454;53.516;10.478;2023-03-01T06:06:36;8.93;;;2.42;;
18649;SDS011;9454;53.516;10.478;2023-03-01T06:09:40;8.07;;;3.20;;
18649;SDS011;9454;53.516;10.478;2023-03-01T06:12:44;12.63;;;3.45;;
18649;SDS011;9454;53.516;10.478;2023-03-01T06:15:48;5.43;;;2.72;;
18649;SDS011;9454;53.516;10.478;2023-03-01T06:18:51;9.80;;;3.28;;
18649;SDS011;9454;53.516;10.478;2023-03-01T06:21:56;6.13;;;3.40;;
18649;SDS011;9454;53.516;10.478;2023-03-01T06:24:59;5.95;;;3.08;;
18649;SDS011;9454;53.516;10.478;2023-03-01T06:28:03;9.43;;;3.78;;
18649;SDS011;9454;53.516;10.478;2023-03-01T06:31:06;6.22;;;3.65;;
18649;SDS011;9454;53.516;10.478;2023-03-01T06:34:10;14.50;;;4.13;;
18649;SDS011;9454;53.516;10.478;2023-03-01T06:37:16;11.30;;;4.00;;
18649;SDS011;9454;53.516;10.478;2023-03-01T06:40:26;9.95;;;4.07;;
18649;SDS011;9454;53.516;10.478;2023-03-01T06:43:31;6.75;;;3.45;;
18649;SDS011;9454;53.516;10.478;2023-03-01T06:46:38;6.70;;;3.22;;
18649;SDS011;9454;53.516;10.478;2023-03-01T06:49:42;7.93;;;3.25;;
18649;SDS011;9454;53.516;10.478;2023-03-01T06:52:47;7.68;;;3.20;;
18649;SDS011;9454;53.516;10.478;2023-03-01T06:55:53;4.45;;;2.97;;
18649;SDS011;9454;53.516;10.478;2023-03-01T06:58:57;11.65;;;3.97;;
18649;SDS011;9454;53.516;10.478;2023-03-01T07:02:00;5.55;;;2.88;;
18649;SDS011;9454;53.516;10.478;2023-03-01T07:05:04;5.47;;;3.00;;
18649;SDS011;9454;53.516;10.478;2023-03-01T07:08:09;6.82;;;3.30;;
18649;SDS011;9454;53.516;10.478;2023-03-01T07:11:12;7.53;;;3.25;;
18649;SDS011;9454;53.516;10.478;2023-03-01T07:14:15;9.77;;;3.17;;
18649;SDS011;9454;53.516;10.478;2023-03-01T07:17:21;7.18;;;3.15;;
18649;SDS011;9454;53.516;10.478;2023-03-01T07:20:24;7.97;;;3.33;;
18649;SDS011;9454;53.516;10.478;2023-03-01T07:23:29;6.35;;;3.00;;
18649;SDS011;9454;53.516;10.478;2023-03-01T07:26:32;8.57;;;3.25;;
18649;SDS011;9454;53.516;10.478;2023-03-01T07:29:36;8.30;;;3.50;;
18649;SDS011;9454;53.516;10.478;2023-03-01T07:32:39;9.40;;;3.83;;
18649;SDS011;9454;53.516;10.478;2023-03-01T07:35:44;9.00;;;3.63;;
18649;SDS011;9454;53.516;10.478;2023-03-01T07:38:49;7.00;;;3.80;;
18649;SDS011;9454;53.516;10.478;2023-03-01T07:41:52;12.32;;;4.43;;
18649;SDS011;9454;53.516;10.478;2023-03-01T07:44:56;8.95;;;4.22;;
18649;SDS011;9454;53.516;10.478;2023-03-01T07:48:00;10.23;;;3.97;;
18649;SDS011;9454;53.516;10.478;2023-03-01T07:51:04;16.55;;;6.88;;
18649;SDS011;9454;53.516;10.478;2023-03-01T07:54:09;10.60;;;4.60;;
18649;SDS011;9454;53.516;10.478;2023-03-01T07:57:15;9.88;;;3.95;;
18649;SDS011;9454;53.516;10.478;2023-03-01T08:00:19;10.80;;;4.80;;
18649;SDS011;9454;53.516;10.478;2023-03-01T08:03:24;12.13;;;4.78;;
18649;SDS011;9454;53.516;10.478;2023-03-01T08:06:28;31.23;;;9.38;;
18649;SDS011;9454;53.516;10.478;2023-03-01T08:09:35;25.60;;;9.07;;
18649;SDS011;9454;53.516;10.478;2023-03-01T08:12:39;25.60;;;9.27;;
18649;SDS011;9454;53.516;10.478;2023-03-01T08:15:42;18.95;;;7.78;;
18649;SDS011;9454;53.516;10.478;2023-03-01T08:18:46;14.18;;;6.15;;
18649;SDS011;9454;53.516;10.478;2023-03-01T08:21:49;12.98;;;6.40;;
18649;SDS011;9454;53.516;10.478;2023-03-01T08:24:54;10.40;;;5.55;;
18649;SDS011;9454;53.516;10.478;2023-03-01T08:27:57;11.90;;;5.40;;
18649;SDS011;9454;53.516;10.478;2023-03-01T08:31:01;13.80;;;5.70;;
18649;SDS011;9454;53.516;10.478;2023-03-01T08:34:06;10.70;;;4.90;;
18649;SDS011;9454;53.516;10.478;2023-03-01T08:37:09;13.32;;;4.95;;
18649;SDS011;9454;53.516;10.478;2023-03-01T08:40:14;9.10;;;4.68;;
18649;SDS011;9454;53.516;10.478;2023-03-01T08:43:18;9.32;;;4.85;;
18649;SDS011;9454;53.516;10.478;2023-03-01T08:46:23;10.35;;;5.32;;
18649;SDS011;9454;53.516;10.478;2023-03-01T08:49:26;9.95;;;5.03;;
18649;SDS011;9454;53.516;10.478;2023-03-01T08:52:30;10.80;;;4.47;;
18649;SDS011;9454;53.516;10.478;2023-03-01T08:55:36;10.68;;;5.38;;
18649;SDS011;9454;53.516;10.478;2023-03-01T08:58:42;12.73;;;5.90;;
18649;SDS011;9454;53.516;10.478;2023-03-01T09:01:46;19.77;;;7.20;;
18649;SDS011;9454;53.516;10.478;2023-03-01T09:04:49;19.33;;;7.45;;
18649;SDS011;9454;53.516;10.478;2023-03-01T09:07:53;10.65;;;5.28;;
18649;SDS011;9454;53.516;10.478;2023-03-01T09:10:58;13.50;;;5.20;;
18649;SDS011;9454;53.516;10.478;2023-03-01T09:14:01;11.68;;;5.53;;
18649;SDS011;9454;53.516;10.478;2023-03-01T09:17:08;11.88;;;5.32;;
18649;SDS011;9454;53.516;10.478;2023-03-01T09:20:11;13.70;;;6.20;;
18649;SDS011;9454;53.516;10.478;2023-03-01T09:23:15;17.75;;;6.05;;
18649;SDS011;9454;53.516;10.478;2023-03-01T09:26:20;13.38;;;5.53;;
18649;SDS011;9454;53.516;10.478;2023-03-01T09:29:24;13.00;;;5.88;;
18649;SDS011;9454;53.516;10.478;2023-03-01T09:32:29;12.95;;;5.65;;
18649;SDS011;9454;53.516;10.478;2023-03-01T09:35:33;12.15;;;6.05;;
18649;SDS011;9454;53.516;10.478;2023-03-01T09:38:36;12.82;;;5.10;;
18649;SDS011;9454;53.516;10.478;2023-03-01T09:41:44;11.68;;;5.10;;
18649;SDS011;9454;53.516;10.478;2023-03-01T09:44:50;13.13;;;6.22;;
18649;SDS011;9454;53.516;10.478;2023-03-01T09:47:54;15.52;;;5.40;;
18649;SDS011;9454;53.516;10.478;2023-03-01T09:50:58;15.20;;;5.28;;
18649;SDS011;9454;53.516;10.478;2023-03-01T09:54:04;12.48;;;5.63;;
18649;SDS011;9454;53.516;10.478;2023-03-01T09:57:26;13.02;;;5.18;;
18649;SDS011;9454;53.516;10.478;2023-03-01T10:00:33;8.85;;;5.43;;
18649;SDS011;9454;53.516;10.478;2023-03-01T10:03:39;12.50;;;5.57;;
18649;SDS011;9454;53.516;10.478;2023-03-01T10:06:46;9.98;;;4.93;;
18649;SDS011;9454;53.516;10.478;2023-03-01T10:09:49;15.60;;;5.50;;
18649;SDS011;9454;53.516;10.478;2023-03-01T10:12:54;11.02;;;5.95;;
18649;SDS011;9454;53.516;10.478;2023-03-01T10:16:00;11.95;;;4.82;;
18649;SDS011;9454;53.516;10.478;2023-03-01T10:19:04;10.68;;;5.00;;
18649;SDS011;9454;53.516;10.478;2023-03-01T10:22:11;12.15;;;4.72;;
18649;SDS011;9454;53.516;10.478;2023-03-01T10:25:17;10.15;;;4.78;;
18649;SDS011;9454;53.516;10.478;2023-03-01T10:28:28;10.43;;;5.38;;
18649;SDS011;9454;53.516;10.478;2023-03-01T10:31:37;13.05;;;5.28;;
18649;SDS011;9454;53.516;10.478;2023-03-01T10:34:41;15.52;;;5.07;;
18649;SDS011;9454;53.516;10.478;2023-03-01T10:37:58;10.02;;;5.15;;
18649;SDS011;9454;53.516;10.478;2023-03-01T10:41:04;9.75;;;4.50;;
18649;SDS011;9454;53.516;10.478;2023-03-01T10:44:09;13.43;;;4.88;;
18649;SDS011;9454;53.516;10.478;2023-03-01T10:47:32;12.77;;;5.57;;
18649;SDS011;9454;53.516;10.478;2023-03-01T10:50:36;9.48;;;5.03;;
18649;SDS011;9454;53.516;10.478;2023-03-01T10:53:43;9.55;;;5.00;;
18649;SDS011;9454;53.516;10.478;2023-03-01T10:56:51;11.98;;;5.55;;
18649;SDS011;9454;53.516;10.478;2023-03-01T11:00:18;10.10;;;4.80;;
18649;SDS011;9454;53.516;10.478;2023-03-01T11:03:23;10.65;;;5.32;;
18649;SDS011;9454;53.516;10.478;2023-03-01T11:06:26;9.88;;;5.18;;
18649;SDS011;9454;53.516;10.478;2023-03-01T11:09:30;11.35;;;5.30;;
18649;SDS011;9454;53.516;10.478;2023-03-01T11:12:38;11.60;;;5.50;;
18649;SDS011;9454;53.516;10.478;2023-03-01T11:15:43;11.70;;;5.65;;
18649;SDS011;9454;53.516;10.478;2023-03-01T11:19:06;8.35;;;4.47;;
18649;SDS011;9454;53.516;10.478;2023-03-01T11:22:18;11.05;;;4.38;;
18649;SDS011;9454;53.516;10.478;2023-03-01T11:25:23;12.48;;;5.55;;
18649;SDS011;9454;53.516;10.478;2023-03-01T11:28:28;10.88;;;4.72;;
18649;SDS011;9454;53.516;10.478;2023-03-01T11:31:33;10.82;;;4.30;;
18649;SDS011;9454;53.516;10.478;2023-03-01T11:34:46;7.97;;;4.65;;
18649;SDS011;9454;53.516;10.478;2023-03-01T11:37:56;16.20;;;5.28;;
18649;SDS011;9454;53.516;10.478;2023-03-01T11:41:04;7.13;;;4.15;;
18649;SDS011;9454;53.516;10.478;2023-03-01T11:44:10;10.63;;;5.20;;
18649;SDS011;9454;53.516;10.478;2023-03-01T11:47:24;8.07;;;4.15;;
18649;SDS011;9454;53.516;10.478;2023-03-01T11:50:35;7.82;;;3.92;;
18649;SDS011;9454;53.516;10.478;2023-03-01T11:53:48;10.30;;;4.55;;
18649;SDS011;9454;53.516;10.478;2023-03-01T11:56:54;8.10;;;4.10;;
18649;SDS011;9454;53.516;10.478;2023-03-01T12:03:26;9.50;;;4.28;;
18649;SDS011;9454;53.516;10.478;2023-03-01T12:06:40;6.90;;;3.50;;
18649;SDS011;9454;53.516;10.478;2023-03-01T12:09:52;10.38;;;4.15;;
18649;SDS011;9454;53.516;10.478;2023-03-01T12:16:23;7.93;;;3.25;;
18649;SDS011;9454;53.516;10.478;2023-03-01T12:19:45;7.00;;;3.25;;
18649;SDS011;9454;53.516;10.478;2023-03-01T12:23:02;7.93;;;3.67;;
18649;SDS011;9454;53.516;10.478;2023-03-01T12:26:24;5.95;;;3.80;;
18649;SDS011;9454;53.516;10.478;2023-03-01T12:29:29;5.43;;;3.47;;
18649;SDS011;9454;53.516;10.478;2023-03-01T12:32:38;5.13;;;3.15;;
18649;SDS011;9454;53.516;10.478;2023-03-01T12:39:07;6.82;;;4.03;;
18649;SDS011;9454;53.516;10.478;2023-03-01T12:42:15;7.57;;;3.88;;
18649;SDS011;9454;53.516;10.478;2023-03-01T12:48:53;7.32;;;3.72;;
18649;SDS011;9454;53.516;10.478;2023-03-01T12:52:02;8.52;;;3.92;;
18649;SDS011;9454;53.516;10.478;2023-03-01T12:55:15;7.88;;;3.83;;
18649;SDS011;9454;53.516;10.478;2023-03-01T12:58:23;12.32;;;4.38;;
18649;SDS011;9454;53.516;10.478;2023-03-01T13:01:41;9.85;;;4.35;;
18649;SDS011;9454;53.516;10.478;2023-03-01T13:04:58;7.03;;;3.95;;
18649;SDS011;9454;53.516;10.478;2023-03-01T13:08:07;11.30;;;4.40;;
18649;SDS011;9454;53.516;10.478;2023-03-01T13:11:16;8.75;;;4.00;;
18649;SDS011;9454;53.516;10.478;2023-03-01T13:14:36;7.28;;;3.75;;
18649;SDS011;9454;53.516;10.478;2023-03-01T13:17:41;7.60;;;2.72;;
18649;SDS011;9454;53.516;10.478;2023-03-01T13:20:47;6.10;;;3.00;;
18649;SDS011;9454;53.516;10.478;2023-03-01T13:23:50;7.05;;;3.28;;
18649;SDS011;9454;53.516;10.478;2023-03-01T13:30:39;6.40;;;3.22;;
18649;SDS011;9454;53.516;10.478;2023-03-01T13:33:44;6.43;;;3.13;;
18649;SDS011;9454;53.516;10.478;2023-03-01T13:36:51;7.22;;;2.67;;
18649;SDS011;9454;53.516;10.478;2023-03-01T13:39:55;7.65;;;3.53;;
18649;SDS011;9454;53.516;10.478;2023-03-01T13:43:00;7.80;;;3.80;;
18649;SDS011;9454;53.516;10.478;2023-03-01T13:46:24;5.13;;;2.55;;
18649;SDS011;9454;53.516;10.478;2023-03-01T13:49:29;6.05;;;2.65;;
18649;SDS011;9454;53.516;10.478;2023-03-01T13:52:48;4.95;;;2.30;;
18649;SDS011;9454;53.516;10.478;2023-03-01T13:55:55;4.88;;;2.10;;
18649;SDS011;9454;53.516;10.478;2023-03-01T13:59:01;4.30;;;2.38;;
18649;SDS011;9454;53.516;10.478;2023-03-01T14:02:11;4.43;;;2.03;;
18649;SDS011;9454;53.516;10.478;2023-03-01T14:05:15;4.13;;;2.15;;
18649;SDS011;9454;53.516;10.478;2023-03-01T14:08:21;3.20;;;2.00;;
18649;SDS011;9454;53.516;10.478;2023-03-01T14:14:45;3.50;;;1.90;;
18649;SDS011;9454;53.516;10.478;2023-03-01T14:17:54;3.90;;;2.08;;
18649;SDS011;9454;53.516;10.478;2023-03-01T14:21:00;3.25;;;1.98;;
18649;SDS011;9454;53.516;10.478;2023-03-01T14:24:04;4.40;;;1.98;;
18649;SDS011;9454;53.516;10.478;2023-03-01T14:27:09;8.32;;;2.28;;
18649;SDS011;9454;53.516;10.478;2023-03-01T14:30:14;4.68;;;2.22;;
18649;SDS011;9454;53.516;10.478;2023-03-01T14:33:22;6.65;;;2.53;;
18649;SDS011;9454;53.516;10.478;2023-03-01T14:36:26;5.20;;;2.00;;
18649;SDS011;9454;53.516;10.478;2023-03-01T14:39:30;4.53;;;2.20;;
18649;SDS011;9454;53.516;10.478;2023-03-01T14:42:35;6.50;;;3.50;;
18649;SDS011;9454;53.516;10.478;2023-03-01T14:45:39;6.20;;;3.22;;
18649;SDS011;9454;53.516;10.478;2023-03-01T14:48:45;6.07;;;3.10;;
18649;SDS011;9454;53.516;10.478;2023-03-01T14:51:49;6.93;;;3.15;;
18649;SDS011;9454;53.516;10.478;2023-03-01T14:54:55;4.13;;;2.50;;
18649;SDS011;9454;53.516;10.478;2023-03-01T14:57:58;8.45;;;3.15;;
18649;SDS011;9454;53.516;10.478;2023-03-01T15:01:04;6.00;;;2.92;;
18649;SDS011;9454;53.516;10.478;2023-03-01T15:04:12;5.18;;;2.40;;
18649;SDS011;9454;53.516;10.478;2023-03-01T15:07:16;4.25;;;2.50;;
18649;SDS011;9454;53.516;10.478;2023-03-01T15:10:21;5.45;;;2.17;;
18649;SDS011;9454;53.516;10.478;2023-03-01T15:13:25;2.92;;;1.80;;
18649;SDS011;9454;53.516;10.478;2023-03-01T15:16:29;5.40;;;2.38;;
18649;SDS011;9454;53.516;10.478;2023-03-01T15:19:35;3.65;;;1.70;;
18649;SDS011;9454;53.516;10.478;2023-03-01T15:22:38;5.45;;;1.92;;
18649;SDS011;9454;53.516;10.478;2023-03-01T15:25:43;3.13;;;1.77;;
18649;SDS011;9454;53.516;10.478;2023-03-01T15:28:49;5.90;;;1.92;;
18649;SDS011;9454;53.516;10.478;2023-03-01T15:31:54;2.45;;;1.83;;
18649;SDS011;9454;53.516;10.478;2023-03-01T15:35:00;2.35;;;1.35;;
18649;SDS011;9454;53.516;10.478;2023-03-01T15:38:22;3.00;;;1.55;;
18649;SDS011;9454;53.516;10.478;2023-03-01T15:41:27;1.75;;;1.40;;
18649;SDS011;9454;53.516;10.478;2023-03-01T15:44:33;3.63;;;1.52;;
18649;SDS011;9454;53.516;10.478;2023-03-01T15:47:46;3.47;;;1.55;;
18649;SDS011;9454;53.516;10.478;2023-03-01T16:30:26;5.72;;;2.25;;
18649;SDS011;9454;53.516;10.478;2023-03-01T16:33:30;6.70;;;2.20;;
18649;SDS011;9454;53.516;10.478;2023-03-01T16:36:35;3.85;;;1.77;;
18649;SDS011;9454;53.516;10.478;2023-03-01T16:39:39;10.43;;;2.95;;
18649;SDS011;9454;53.516;10.478;2023-03-01T16:42:42;4.47;;;2.17;;
18649;SDS011;9454;53.516;10.478;2023-03-01T16:45:47;5.20;;;2.80;;
18649;SDS011;9454;53.516;10.478;2023-03-01T16:48:51;4.80;;;2.47;;
18649;SDS011;9454;53.516;10.478;2023-03-01T16:51:54;7.32;;;3.33;;
18649;SDS011;9454;53.516;10.478;2023-03-01T16:54:57;6.68;;;3.38;;
18649;SDS011;9454;53.516;10.478;2023-03-01T16:58:01;5.57;;;3.17;;
18649;SDS011;9454;53.516;10.478;2023-03-01T17:01:08;11.10;;;3.67;;
18649;SDS011;9454;53.516;10.478;2023-03-01T17:04:12;6.30;;;3.50;;
18649;SDS011;9454;53.516;10.478;2023-03-01T17:07:16;7.03;;;3.75;;
18649;SDS011;9454;53.516;10.478;2023-03-01T17:10:20;9.35;;;3.90;;
18649;SDS011;9454;53.516;10.478;2023-03-01T17:13:23;5.30;;;3.35;;
18649;SDS011;9454;53.516;10.478;2023-03-01T17:16:28;8.95;;;4.45;;
18649;SDS011;9454;53.516;10.478;2023-03-01T17:19:32;6.35;;;3.35;;
18649;SDS011;9454;53.516;10.478;2023-03-01T17:22:41;6.07;;;3.45;;
18649;SDS011;9454;53.516;10.478;2023-03-01T17:25:44;8.02;;;4.18;;
18649;SDS011;9454;53.516;10.478;2023-03-01T17:28:48;7.78;;;4.05;;
18649;SDS011;9454;53.516;10.478;2023-03-01T17:32:29;11.63;;;4.40;;
